Santa Rosa, CA (95403)

4:24 AM PDT on August 25, 2016 (GMT -0700)
APRSWXNET | | Change Station

Elev 759 ft 38.53 °N, 122.68 °W | Updated 9 hours ago

Cloudy
Cloudy
53 °F
Feels Like 53 °F
N
2
Wind Variable Wind from South
Gusts mph

Today
High -- | Low -- °F
--% Chance of Precip.
Yesterday
High -- | Low -- °F
Precip. -- in
Pressure 29.92 in
Visibility 7.0 miles
Clouds Overcast 300 ft
Dew Point 45 °F
Humidity 74%
Rainfall in
Snow Depth Not available.
6:34 AM 7:50 PM
Waning Gibbous, 46% visible
METAR KSTS 251053Z AUTO 18003KT 7SM OVC003 12/12 A2994 RMK AO2 SLP132 T01220117
Pressure 29.92 in
Visibility 7.0 miles
Clouds Overcast 300 ft
Dew Point 45 °F
Humidity 74%
Rainfall in
Snow Depth Not available.
6:34 AM 7:50 PM
Waning Gibbous, 46% visible
METAR KSTS 251053Z AUTO 18003KT 7SM OVC003 12/12 A2994 RMK AO2 SLP132 T01220117

10-Day Weather Forecast

Almanac

Astronomy

Aug. 25, 2016 Rise Set
Actual Time
Civil Twilight
Nautical Twilight
Astronomical Twilight
Moon
Length of Visible Light
Length of Day
Tomorrow will be .
, % of the Moon is Illuminated

Today's Extremes

State Highs State Lows

Community

WunderPhotos

Upload Photos

1,934,822 photos uploaded!

WunderBlog® & News

Nearby

Air Quality

  Air Quality AQ Index Pollutant
Not available.

Snow Depth

Station Depth Elevation

Earthquake Activity

City Distance Mag. Time & Date
Minimum magnitude displayed is 2.5.

Coastal Water Temperatures

Place Temperature

Stations

Nearby Weather Stations

Station Location Temp. Windchill Dew Point Humidity Wind Precip. Elev Updated Type
                   

Watches & Warnings

There are currently no watches in effect.